createdAt,value
2022-11-01T00:03:07.133Z,12.53
2022-11-01T00:08:08.590Z,12.71
2022-11-01T00:13:10.118Z,12.73
2022-11-01T00:18:11.507Z,12.85
2022-11-01T00:23:13.042Z,12.85
2022-11-01T00:28:14.494Z,12.91
2022-11-01T00:33:15.898Z,12.93
2022-11-01T00:38:18.235Z,12.97
2022-11-01T00:48:21.142Z,12.97
2022-11-01T00:53:22.654Z,13.04
2022-11-01T00:58:24.060Z,13.08
2022-11-01T01:03:25.879Z,13.00
2022-11-01T01:08:28.357Z,13.06
2022-11-01T01:13:29.816Z,12.99
2022-11-01T01:18:31.351Z,12.99
2022-11-01T01:23:33.063Z,12.96
2022-11-01T01:28:37.631Z,13.06
2022-11-01T01:33:43.091Z,13.17
2022-11-01T01:38:44.736Z,13.03
2022-11-01T01:43:46.491Z,13.36
2022-11-01T01:48:53.286Z,13.37
2022-11-01T01:53:56.706Z,13.41
2022-11-01T01:59:10.040Z,13.40
2022-11-01T02:04:25.159Z,13.30
2022-11-01T02:09:29.436Z,13.26
2022-11-01T02:14:33.336Z,13.26
2022-11-01T02:20:11.635Z,13.22
2022-11-01T02:25:51.079Z,13.41
2022-11-01T02:31:26.663Z,13.47
2022-11-01T02:36:37.877Z,13.41
2022-11-01T02:41:47.314Z,13.36
2022-11-01T02:46:48.851Z,13.37
2022-11-01T02:51:52.588Z,13.38
2022-11-01T02:56:56.403Z,13.40
2022-11-01T03:02:05.512Z,13.63
2022-11-01T03:07:11.829Z,13.63
2022-11-01T03:12:22.542Z,13.70
2022-11-01T03:17:32.755Z,13.74
2022-11-01T03:22:46.026Z,13.65
2022-11-01T03:27:48.013Z,13.89
2022-11-01T03:32:53.384Z,13.89
2022-11-01T03:38:00.415Z,13.94
2022-11-01T03:43:07.085Z,13.93
2022-11-01T03:48:08.533Z,13.98
2022-11-01T03:53:09.891Z,14.00
2022-11-01T03:58:11.677Z,13.94
2022-11-01T04:03:13.654Z,14.03
2022-11-01T04:08:15.131Z,13.99
2022-11-01T04:13:16.658Z,13.92
2022-11-01T04:18:20.025Z,13.95
2022-11-01T04:23:21.571Z,13.93
2022-11-01T04:28:23.060Z,14.04
2022-11-01T04:33:24.613Z,14.04
2022-11-01T04:38:26.086Z,14.12
2022-11-01T04:43:27.578Z,14.08
2022-11-01T04:48:28.954Z,14.09
2022-11-01T04:53:30.500Z,14.04
2022-11-01T04:58:32.583Z,14.07
2022-11-01T05:03:35.064Z,14.14
2022-11-01T05:08:36.739Z,14.05
2022-11-01T05:13:38.206Z,14.04
2022-11-01T05:18:42.389Z,13.98
2022-11-01T05:23:43.796Z,14.11
2022-11-01T05:28:45.175Z,14.16
2022-11-01T05:33:46.613Z,14.14
2022-11-01T05:38:48.092Z,14.05
2022-11-01T05:43:49.574Z,14.15
2022-11-01T05:48:51.021Z,14.16
2022-11-01T05:53:52.507Z,14.13
2022-11-01T05:58:53.922Z,14.09
2022-11-01T06:03:55.342Z,14.02
2022-11-01T06:08:57.734Z,14.23
2022-11-01T06:13:59.575Z,14.25
2022-11-01T06:19:01.082Z,14.21
2022-11-01T06:24:02.508Z,13.99
2022-11-01T06:29:04.335Z,14.13
2022-11-01T06:34:05.766Z,14.06
2022-11-01T06:39:07.244Z,14.08
2022-11-01T06:44:08.625Z,14.03
2022-11-01T06:49:12.402Z,13.98
2022-11-01T06:54:16.327Z,14.04
2022-11-01T06:59:17.717Z,14.07
2022-11-01T07:04:19.172Z,13.99
2022-11-01T07:09:20.682Z,14.07
2022-11-01T07:14:22.128Z,14.07
2022-11-01T07:19:23.536Z,14.10
2022-11-01T07:24:25.019Z,14.13
2022-11-01T07:29:26.407Z,14.16
2022-11-01T07:34:27.882Z,14.24
2022-11-01T07:39:29.585Z,14.20
2022-11-01T07:44:31.008Z,14.15
2022-11-01T07:49:32.479Z,14.23
2022-11-01T07:54:33.887Z,14.28
2022-11-01T07:59:35.406Z,14.35
2022-11-01T08:04:36.883Z,14.30
2022-11-01T08:09:38.277Z,14.46
2022-11-01T08:14:39.659Z,14.53
2022-11-01T08:19:41.081Z,14.59
2022-11-01T08:24:42.500Z,14.71
2022-11-01T08:29:43.941Z,14.79
2022-11-01T08:34:45.468Z,14.89
2022-11-01T08:39:47.048Z,15.09
2022-11-01T08:44:48.549Z,15.19
2022-11-01T08:49:49.939Z,15.28
2022-11-01T08:54:51.408Z,15.36
2022-11-01T08:59:52.983Z,15.72
2022-11-01T09:04:54.404Z,15.65
2022-11-01T09:09:55.814Z,15.56
2022-11-01T09:14:57.328Z,15.71
2022-11-01T09:19:58.839Z,15.74
2022-11-01T09:25:00.322Z,15.64
2022-11-01T09:30:02.274Z,15.86
2022-11-01T09:35:03.975Z,15.85
2022-11-01T09:40:06.459Z,16.04
2022-11-01T09:45:17.466Z,16.00
2022-11-01T09:50:25.059Z,15.95
2022-11-01T09:56:06.885Z,16.00
2022-11-01T10:01:11.419Z,16.15
2022-11-01T10:06:19.687Z,16.15
2022-11-01T10:11:21.357Z,16.11
2022-11-01T10:16:40.060Z,16.08
2022-11-01T10:21:53.290Z,16.16
2022-11-01T10:27:18.882Z,15.94
2022-11-01T10:32:34.983Z,15.96
2022-11-01T10:37:57.333Z,15.93
2022-11-01T10:43:13.643Z,15.83
2022-11-01T10:48:42.185Z,15.67
2022-11-01T10:53:48.433Z,15.73
2022-11-01T10:59:10.533Z,15.74
2022-11-01T11:04:15.582Z,15.57
2022-11-01T11:09:35.277Z,15.58
2022-11-01T11:14:37.574Z,15.59
2022-11-01T11:19:39.385Z,15.56
2022-11-01T11:24:43.321Z,15.64
2022-11-01T11:29:51.735Z,15.64
2022-11-01T11:34:57.506Z,15.53
2022-11-01T11:40:02.464Z,15.56
2022-11-01T11:45:29.001Z,15.48
2022-11-01T11:50:33.680Z,15.48
2022-11-01T11:55:39.800Z,15.39
2022-11-01T12:00:46.526Z,15.49
2022-11-01T12:06:06.187Z,15.46
2022-11-01T12:11:07.702Z,15.55
2022-11-01T12:16:15.302Z,15.43
2022-11-01T12:21:23.414Z,15.50
2022-11-01T12:26:27.128Z,15.52
2022-11-01T12:31:31.623Z,15.46
2022-11-01T12:36:44.264Z,15.36
2022-11-01T12:41:57.123Z,15.31
2022-11-01T12:47:05.885Z,15.35
2022-11-01T12:52:43.393Z,15.34
2022-11-01T12:57:45.170Z,15.22
2022-11-01T13:03:10.859Z,15.06
2022-11-01T13:08:20.937Z,15.17
2022-11-01T13:13:41.853Z,15.14
2022-11-01T13:18:55.884Z,15.13
2022-11-01T13:24:07.536Z,15.06
2022-11-01T13:29:26.941Z,15.08
2022-11-01T13:34:47.646Z,15.03
2022-11-01T13:39:58.094Z,14.98
2022-11-01T13:45:21.401Z,14.90
2022-11-01T13:51:07.760Z,14.78
2022-11-01T13:56:12.855Z,14.61
2022-11-01T14:01:33.725Z,14.62
2022-11-01T14:06:37.550Z,14.64
2022-11-01T14:11:41.730Z,14.64
2022-11-01T14:16:43.277Z,14.61
2022-11-01T14:21:46.996Z,14.49
2022-11-01T14:27:00.471Z,14.45
2022-11-01T14:32:02.609Z,14.44
2022-11-01T14:37:15.898Z,14.44
2022-11-01T14:42:19.455Z,14.42
2022-11-01T14:47:39.202Z,14.32
2022-11-01T14:52:50.831Z,14.23
2022-11-01T14:58:19.921Z,14.13
2022-11-01T15:03:22.704Z,14.20
2022-11-01T15:08:28.718Z,14.21
2022-11-01T15:13:34.079Z,14.14
2022-11-01T15:18:39.890Z,14.06
2022-11-01T15:23:45.884Z,14.06
2022-11-01T15:29:02.236Z,13.89
2022-11-01T15:34:19.821Z,13.85
2022-11-01T15:39:24.092Z,13.93
2022-11-01T15:44:26.682Z,13.75
2022-11-01T15:49:41.307Z,13.52
2022-11-01T15:54:47.526Z,13.39
2022-11-01T15:59:54.873Z,13.39
2022-11-01T16:04:57.325Z,13.32
2022-11-01T16:10:01.495Z,13.18
2022-11-01T16:15:17.954Z,13.12
2022-11-01T16:20:28.709Z,12.99
2022-11-01T16:25:32.167Z,12.88
2022-11-01T16:30:44.304Z,12.80
2022-11-01T16:35:47.402Z,12.61
2022-11-01T16:40:54.522Z,12.61
2022-11-01T16:45:56.977Z,12.55
2022-11-01T16:51:00.202Z,12.48
2022-11-01T16:56:35.711Z,12.35
2022-11-01T17:01:37.789Z,12.34
2022-11-01T17:06:39.579Z,12.16
2022-11-01T17:11:46.386Z,12.15
2022-11-01T17:16:51.068Z,12.00
2022-11-01T17:21:52.882Z,11.95
2022-11-01T17:26:56.527Z,11.66
2022-11-01T17:31:58.538Z,11.67
2022-11-01T17:37:00.223Z,11.55
2022-11-01T17:42:01.686Z,11.48
2022-11-01T17:47:03.218Z,11.29
2022-11-01T17:52:04.790Z,11.14
2022-11-01T17:57:06.188Z,11.14
2022-11-01T18:02:09.616Z,10.92
2022-11-01T18:07:11.899Z,10.95
2022-11-01T18:12:39.293Z,10.92
2022-11-01T18:18:12.237Z,10.71
2022-11-01T18:23:17.846Z,10.68
2022-11-01T18:28:27.592Z,10.60
2022-11-01T18:34:06.480Z,10.63
2022-11-01T18:39:55.821Z,10.52
2022-11-01T18:44:59.495Z,10.49
2022-11-01T18:50:04.732Z,10.39
2022-11-01T18:55:12.118Z,10.36
2022-11-01T19:00:14.032Z,10.20
2022-11-01T19:05:18.092Z,10.09
2022-11-01T19:10:21.188Z,9.98
2022-11-01T19:15:28.541Z,9.99
2022-11-01T19:20:40.477Z,9.84
2022-11-01T19:25:42.989Z,9.92
2022-11-01T19:30:52.083Z,9.85
2022-11-01T19:35:55.912Z,9.71
2022-11-01T19:40:57.629Z,9.78
2022-11-01T19:45:59.133Z,9.74
2022-11-01T19:51:00.730Z,9.71
2022-11-01T19:56:06.350Z,9.72
2022-11-01T20:01:08.517Z,9.71
2022-11-01T20:06:30.322Z,9.64
2022-11-01T20:11:32.845Z,9.61
2022-11-01T20:16:34.271Z,9.67
2022-11-01T20:21:35.828Z,9.71
2022-11-01T20:26:37.293Z,9.63
2022-11-01T20:31:39.009Z,9.57
2022-11-01T20:36:40.536Z,9.61
2022-11-01T20:41:42.101Z,9.80
2022-11-01T20:46:43.512Z,10.01
2022-11-01T20:51:44.955Z,10.05
2022-11-01T20:56:46.419Z,10.10
2022-11-01T21:01:48.108Z,10.10
2022-11-01T21:06:49.767Z,10.24
2022-11-01T21:11:51.262Z,10.19
2022-11-01T21:16:56.002Z,10.44
2022-11-01T21:21:58.873Z,10.66
2022-11-01T21:27:12.599Z,10.64
2022-11-01T21:32:30.322Z,10.59
2022-11-01T21:37:31.742Z,10.43
2022-11-01T21:42:34.348Z,10.23
2022-11-01T21:47:35.842Z,9.99
2022-11-01T21:52:37.251Z,9.86
2022-11-01T21:57:38.739Z,9.93
2022-11-01T22:02:40.489Z,9.80
2022-11-01T22:07:42.153Z,9.55
2022-11-01T22:12:43.655Z,9.62
2022-11-01T22:17:45.053Z,9.57
2022-11-01T22:22:46.510Z,9.70
2022-11-01T22:27:47.943Z,9.65
2022-11-01T22:32:49.414Z,9.71
2022-11-01T22:37:50.881Z,9.89
2022-11-01T22:42:58.027Z,9.88
2022-11-01T22:47:59.447Z,9.93
2022-11-01T22:53:01.108Z,9.87
2022-11-01T22:58:17.618Z,9.86
2022-11-01T23:03:39.677Z,9.90
2022-11-01T23:08:41.181Z,9.82
2022-11-01T23:13:42.581Z,10.09
2022-11-01T23:18:44.746Z,9.91
2022-11-01T23:23:46.905Z,10.13
2022-11-01T23:28:52.850Z,10.08
2022-11-01T23:33:54.984Z,10.09
2022-11-01T23:39:06.346Z,10.09
2022-11-01T23:44:28.356Z,9.82
2022-11-01T23:49:32.865Z,9.72
2022-11-01T23:54:38.550Z,9.72
2022-11-01T23:59:39.954Z,9.58
